createdAt,value
2023-04-10T00:01:14.375Z,5.43
2023-04-10T00:03:41.566Z,5.47
2023-04-10T00:06:08.539Z,5.90
2023-04-10T00:08:35.157Z,4.65
2023-04-10T00:11:01.799Z,3.08
2023-04-10T00:13:28.453Z,4.53
2023-04-10T00:15:55.052Z,3.97
2023-04-10T00:18:21.708Z,1.48
2023-04-10T00:20:48.404Z,3.88
2023-04-10T00:23:15.020Z,3.05
2023-04-10T00:25:41.575Z,2.38
2023-04-10T00:28:08.306Z,3.55
2023-04-10T00:30:34.929Z,2.95
2023-04-10T00:33:01.523Z,3.55
2023-04-10T00:35:28.221Z,2.92
2023-04-10T00:37:56.366Z,2.10
2023-04-10T00:40:23.088Z,1.20
2023-04-10T00:42:49.654Z,1.08
2023-04-10T00:45:16.251Z,1.45
2023-04-10T00:47:42.881Z,1.10
2023-04-10T00:50:10.042Z,0.43
2023-04-10T00:52:36.638Z,1.20
2023-04-10T00:55:04.365Z,1.25
2023-04-10T00:57:31.001Z,1.00
2023-04-10T00:59:58.183Z,1.23
2023-04-10T01:02:24.865Z,1.55
2023-04-10T01:04:52.044Z,2.63
2023-04-10T01:07:46.407Z,2.50
2023-04-10T01:10:34.849Z,3.30
2023-04-10T01:13:05.759Z,3.67
2023-04-10T01:15:42.529Z,2.85
2023-04-10T01:18:34.141Z,4.00
2023-04-10T01:21:05.402Z,3.72
2023-04-10T01:23:49.856Z,3.72
2023-04-10T01:26:17.984Z,4.25
2023-04-10T01:29:01.958Z,4.95
2023-04-10T01:31:51.255Z,4.55
2023-04-10T01:34:22.460Z,4.63
2023-04-10T01:36:53.724Z,3.83
2023-04-10T01:39:22.274Z,4.20
2023-04-10T01:41:52.720Z,3.90
2023-04-10T01:44:23.789Z,3.53
2023-04-10T01:46:51.002Z,4.22
2023-04-10T01:49:18.874Z,4.25
2023-04-10T01:51:46.821Z,3.70
2023-04-10T01:54:13.567Z,3.72
2023-04-10T02:02:00.144Z,3.50
2023-04-10T02:04:28.360Z,3.35
2023-04-10T02:07:11.555Z,3.58
2023-04-10T02:10:00.520Z,3.28
2023-04-10T02:12:33.179Z,4.00
2023-04-10T02:15:02.057Z,3.90
2023-04-10T02:17:30.334Z,3.78
2023-04-10T02:19:58.759Z,3.42
2023-04-10T02:22:26.586Z,2.97
2023-04-10T02:24:54.379Z,3.97
2023-04-10T02:27:31.428Z,3.22
2023-04-10T02:29:58.200Z,3.72
2023-04-10T02:32:25.085Z,3.70
2023-04-10T02:34:51.742Z,3.10
2023-04-10T02:37:18.454Z,3.38
2023-04-10T02:39:45.051Z,2.90
2023-04-10T02:42:12.228Z,3.25
2023-04-10T02:44:39.693Z,2.63
2023-04-10T02:47:07.268Z,3.60
2023-04-10T02:49:35.045Z,2.88
2023-04-10T02:52:02.432Z,2.72
2023-04-10T02:54:29.135Z,3.58
2023-04-10T02:56:57.723Z,3.30
2023-04-10T02:59:24.419Z,2.78
2023-04-10T03:01:52.511Z,3.10
2023-04-10T03:04:19.769Z,3.42
2023-04-10T03:06:46.594Z,3.42
2023-04-10T03:09:13.275Z,2.95
2023-04-10T03:11:39.958Z,4.15
2023-04-10T03:14:07.248Z,4.10
2023-04-10T03:16:34.090Z,4.68
2023-04-10T03:19:01.273Z,4.63
2023-04-10T03:21:29.151Z,5.70
2023-04-10T03:23:56.438Z,5.97
2023-04-10T03:26:24.213Z,5.85
2023-04-10T03:28:51.720Z,5.82
2023-04-10T03:31:18.327Z,6.03
2023-04-10T03:33:45.054Z,6.47
2023-04-10T03:36:12.190Z,7.03
2023-04-10T03:38:38.865Z,7.50
2023-04-10T03:41:05.889Z,7.95
2023-04-10T03:43:32.902Z,6.97
2023-04-10T03:45:59.612Z,7.97
2023-04-10T03:48:28.485Z,7.85
2023-04-10T03:50:55.513Z,8.30
2023-04-10T03:53:22.274Z,8.88
2023-04-10T03:55:48.830Z,8.70
2023-04-10T03:58:15.595Z,8.52
2023-04-10T04:00:42.490Z,8.55
2023-04-10T04:03:09.324Z,8.40
2023-04-10T04:05:36.165Z,8.65
2023-04-10T04:08:04.968Z,8.13
2023-04-10T04:10:31.686Z,7.75
2023-04-10T04:12:58.245Z,8.38
2023-04-10T04:15:24.977Z,7.72
2023-04-10T04:17:51.996Z,9.02
2023-04-10T04:20:18.656Z,8.32
2023-04-10T04:22:46.397Z,8.52
2023-04-10T04:25:13.220Z,8.43
2023-04-10T04:27:39.789Z,8.40
2023-04-10T04:30:07.190Z,9.60
2023-04-10T04:32:33.802Z,8.90
2023-04-10T04:35:00.782Z,8.43
2023-04-10T04:37:27.460Z,7.38
2023-04-10T04:39:54.116Z,7.65
2023-04-10T04:42:20.690Z,7.00
2023-04-10T04:44:47.414Z,6.68
2023-04-10T04:47:13.978Z,7.20
2023-04-10T04:49:40.653Z,5.65
2023-04-10T04:52:09.281Z,5.95
2023-04-10T04:54:35.910Z,5.95
2023-04-10T04:57:02.703Z,5.45
2023-04-10T04:59:29.272Z,5.43
2023-04-10T05:01:55.982Z,5.65
2023-04-10T05:04:22.770Z,6.28
2023-04-10T05:06:49.715Z,5.22
2023-04-10T05:09:16.398Z,5.32
2023-04-10T05:11:43.192Z,5.13
2023-04-10T05:14:09.785Z,5.78
2023-04-10T05:16:36.360Z,4.68
2023-04-10T05:19:03.035Z,3.92
2023-04-10T05:21:29.787Z,5.18
2023-04-10T05:23:56.328Z,5.30
2023-04-10T05:26:22.929Z,4.75
2023-04-10T05:28:50.100Z,5.13
2023-04-10T05:31:16.754Z,5.20
2023-04-10T05:33:43.333Z,5.55
2023-04-10T05:36:11.215Z,5.20
2023-04-10T05:38:37.821Z,4.82
2023-04-10T05:41:04.486Z,5.43
2023-04-10T05:43:31.088Z,5.70
2023-04-10T05:45:57.645Z,6.30
2023-04-10T05:48:26.298Z,9.77
2023-04-10T05:50:53.024Z,8.30
2023-04-10T05:53:21.224Z,10.98
2023-04-10T05:55:56.333Z,8.15
2023-04-10T05:58:23.120Z,4.95
2023-04-10T06:00:49.681Z,5.38
2023-04-10T06:03:16.458Z,6.57
2023-04-10T06:05:43.139Z,6.22
2023-04-10T06:08:09.709Z,6.68
2023-04-10T06:10:36.502Z,7.55
2023-04-10T06:13:03.100Z,7.88
2023-04-10T06:15:29.821Z,6.88
2023-04-10T06:17:56.516Z,7.55
2023-04-10T06:20:23.187Z,7.47
2023-04-10T06:22:49.878Z,8.50
2023-04-10T06:25:16.569Z,8.38
2023-04-10T06:27:43.193Z,8.57
2023-04-10T06:30:10.581Z,9.50
2023-04-10T06:32:37.236Z,5.60
2023-04-10T06:35:04.077Z,5.88
2023-04-10T06:37:34.673Z,7.20
2023-04-10T06:40:10.215Z,7.53
2023-04-10T06:42:37.756Z,6.68
2023-04-10T06:45:05.505Z,6.82
2023-04-10T06:47:32.362Z,7.90
2023-04-10T06:49:59.458Z,7.88
2023-04-10T06:52:26.600Z,7.97
2023-04-10T06:54:53.229Z,9.00
2023-04-10T06:57:19.934Z,8.25
2023-04-10T06:59:46.737Z,8.55
2023-04-10T07:02:13.431Z,7.13
2023-04-10T07:04:40.202Z,5.25
2023-04-10T07:07:09.990Z,6.93
2023-04-10T07:09:36.779Z,7.28
2023-04-10T07:12:03.762Z,7.45
2023-04-10T07:14:31.356Z,7.70
2023-04-10T07:16:58.004Z,8.00
2023-04-10T07:19:24.686Z,7.53
2023-04-10T07:21:51.547Z,7.70
2023-04-10T07:24:18.647Z,8.05
2023-04-10T07:26:46.312Z,7.25
2023-04-10T07:29:14.181Z,7.88
2023-04-10T07:31:40.875Z,6.95
2023-04-10T07:34:07.769Z,7.50
2023-04-10T07:36:34.415Z,7.65
2023-04-10T07:39:01.155Z,6.82
2023-04-10T07:41:27.786Z,7.60
2023-04-10T07:43:54.330Z,7.32
2023-04-10T07:46:21.180Z,7.80
2023-04-10T07:48:48.065Z,7.35
2023-04-10T07:51:14.640Z,6.78
2023-04-10T07:53:41.372Z,8.10
2023-04-10T07:56:08.575Z,7.15
2023-04-10T07:58:36.118Z,7.15
2023-04-10T08:01:02.722Z,8.43
2023-04-10T08:03:29.501Z,8.77
2023-04-10T08:05:56.587Z,7.75
2023-04-10T08:08:23.293Z,7.72
2023-04-10T08:10:50.298Z,9.45
2023-04-10T08:13:16.956Z,9.73
2023-04-10T08:15:43.657Z,9.52
2023-04-10T08:18:10.474Z,8.85
2023-04-10T08:20:37.239Z,9.57
2023-04-10T08:23:19.132Z,9.00
2023-04-10T08:25:47.255Z,9.25
2023-04-10T08:28:13.894Z,8.90
2023-04-10T08:30:40.554Z,7.63
2023-04-10T08:33:07.336Z,8.55
2023-04-10T08:35:34.156Z,8.35
2023-04-10T08:38:12.669Z,7.97
2023-04-10T08:40:40.621Z,7.45
2023-04-10T08:43:07.251Z,8.38
2023-04-10T08:45:33.987Z,7.75
2023-04-10T08:48:05.918Z,6.70
2023-04-10T08:50:36.188Z,5.78
2023-04-10T08:53:11.055Z,5.68
2023-04-10T08:55:39.618Z,7.00
2023-04-10T08:58:07.320Z,8.38
2023-04-10T09:00:36.048Z,3.72
2023-04-10T09:03:05.004Z,7.05
2023-04-10T09:05:32.052Z,7.32
2023-04-10T09:07:58.958Z,6.55
2023-04-10T09:10:25.699Z,7.38
2023-04-10T09:12:52.349Z,7.07
2023-04-10T09:15:18.907Z,6.90
2023-04-10T09:17:56.836Z,5.68
2023-04-10T09:20:25.792Z,7.43
2023-04-10T09:22:52.784Z,7.18
2023-04-10T09:25:32.631Z,6.03
2023-04-10T09:28:07.446Z,4.32
2023-04-10T09:30:40.160Z,4.38
2023-04-10T09:33:27.555Z,4.03
2023-04-10T09:35:57.381Z,4.72
2023-04-10T09:38:23.948Z,6.22
2023-04-10T09:40:51.101Z,4.85
2023-04-10T09:43:24.037Z,5.05
2023-04-10T09:45:56.380Z,4.82
2023-04-10T09:48:24.794Z,5.32
2023-04-10T09:50:52.045Z,3.88
2023-04-10T09:53:20.783Z,4.60
2023-04-10T09:55:48.800Z,3.72
2023-04-10T09:58:17.521Z,3.47
2023-04-10T10:00:46.364Z,4.10
2023-04-10T10:03:17.996Z,3.97
2023-04-10T10:05:49.884Z,3.75
2023-04-10T10:08:17.373Z,3.22
2023-04-10T10:11:07.683Z,3.45
2023-04-10T10:13:56.886Z,4.45
2023-04-10T10:16:29.616Z,4.80
2023-04-10T10:19:17.335Z,5.63
2023-04-10T10:21:45.958Z,3.28
2023-04-10T10:24:13.771Z,3.80
2023-04-10T10:26:40.884Z,3.58
2023-04-10T10:29:13.430Z,3.45
2023-04-10T10:31:40.672Z,5.38
2023-04-10T10:34:09.359Z,4.95
2023-04-10T10:36:36.738Z,5.50
2023-04-10T10:39:22.989Z,4.65
2023-04-10T10:42:05.148Z,4.18
2023-04-10T10:45:01.717Z,5.20
2023-04-10T10:47:30.988Z,5.93
2023-04-10T10:49:58.635Z,4.25
2023-04-10T10:52:57.826Z,5.50
2023-04-10T10:55:36.797Z,4.57
2023-04-10T10:58:08.702Z,5.60
2023-04-10T11:00:50.516Z,2.78
2023-04-10T11:03:17.469Z,4.38
2023-04-10T11:06:03.002Z,4.28
2023-04-10T11:08:32.620Z,3.75
2023-04-10T11:11:00.023Z,4.10
2023-04-10T11:13:26.623Z,3.75
2023-04-10T11:15:54.603Z,3.92
2023-04-10T11:18:59.291Z,4.07
2023-04-10T11:21:29.760Z,4.07
2023-04-10T11:23:56.426Z,3.17
2023-04-10T11:26:41.730Z,4.80
2023-04-10T11:29:17.373Z,4.80
2023-04-10T11:31:45.516Z,2.92
2023-04-10T11:34:12.772Z,2.03
2023-04-10T11:36:44.706Z,2.55
2023-04-10T11:39:21.808Z,1.40
2023-04-10T11:41:50.819Z,2.53
2023-04-10T11:44:32.214Z,3.60
2023-04-10T11:46:59.118Z,4.07
2023-04-10T11:49:28.172Z,3.60
2023-04-10T11:51:55.708Z,4.50
2023-04-10T11:54:24.397Z,4.10
2023-04-10T11:57:05.682Z,3.50
2023-04-10T11:59:34.254Z,4.43
2023-04-10T12:02:19.300Z,4.88
2023-04-10T12:04:46.300Z,4.68
2023-04-10T12:07:13.098Z,5.20
2023-04-10T12:09:39.908Z,4.70
2023-04-10T12:12:08.290Z,3.85
2023-04-10T12:14:35.388Z,4.13
2023-04-10T12:17:03.705Z,4.07
2023-04-10T12:19:30.984Z,3.30
2023-04-10T12:21:59.111Z,4.50
2023-04-10T12:24:41.028Z,4.47
2023-04-10T12:27:08.561Z,3.38
2023-04-10T12:29:35.482Z,4.68
2023-04-10T12:32:09.388Z,5.90
2023-04-10T12:34:39.918Z,4.03
2023-04-10T12:37:08.008Z,2.38
2023-04-10T12:39:34.635Z,2.88
2023-04-10T12:42:15.690Z,1.98
2023-04-10T12:45:01.518Z,1.73
2023-04-10T12:47:29.655Z,0.98
2023-04-10T12:50:06.695Z,2.13
2023-04-10T12:52:33.810Z,2.92
2023-04-10T12:55:18.225Z,2.75
2023-04-10T12:57:47.463Z,2.95
2023-04-10T13:00:20.129Z,3.42
2023-04-10T13:02:48.992Z,5.53
2023-04-10T13:05:16.021Z,5.55
2023-04-10T13:07:42.940Z,5.90
2023-04-10T13:10:10.375Z,7.63
2023-04-10T13:12:38.903Z,6.50
2023-04-10T13:15:07.747Z,7.60
2023-04-10T13:17:35.057Z,7.28
2023-04-10T13:20:02.068Z,5.65
2023-04-10T13:22:28.713Z,5.53
2023-04-10T13:24:55.570Z,5.28
2023-04-10T13:27:22.206Z,6.85
2023-04-10T13:29:48.841Z,7.15
2023-04-10T13:32:15.844Z,5.68
2023-04-10T13:34:42.571Z,5.97
2023-04-10T13:37:11.662Z,5.95
2023-04-10T13:39:38.346Z,6.75
2023-04-10T13:42:05.030Z,4.45
2023-04-10T13:44:32.289Z,5.72
2023-04-10T13:46:59.443Z,6.30
2023-04-10T13:49:26.129Z,5.43
2023-04-10T13:51:52.701Z,6.40
2023-04-10T13:54:20.180Z,6.60
2023-04-10T13:56:46.972Z,5.85
2023-04-10T13:59:13.893Z,2.72
2023-04-10T14:01:40.601Z,6.70
2023-04-10T14:04:07.510Z,5.90
2023-04-10T14:06:34.286Z,6.82
2023-04-10T14:09:01.253Z,5.55
2023-04-10T14:11:27.909Z,4.88
2023-04-10T14:13:54.563Z,5.50
2023-04-10T14:16:21.206Z,4.03
2023-04-10T14:18:47.862Z,3.17
2023-04-10T14:21:14.552Z,2.72
2023-04-10T14:23:42.419Z,2.45
2023-04-10T14:26:09.333Z,2.63
2023-04-10T14:28:35.976Z,2.25
2023-04-10T14:31:02.754Z,2.35
2023-04-10T14:33:29.697Z,1.15
2023-04-10T14:35:56.380Z,1.63
2023-04-10T14:38:22.963Z,1.30
2023-04-10T14:40:50.374Z,1.52
2023-04-10T14:43:17.499Z,2.22
2023-04-10T14:45:44.171Z,3.20
2023-04-10T14:48:12.870Z,2.70
2023-04-10T14:50:40.006Z,3.33
2023-04-10T14:53:09.618Z,3.95
2023-04-10T14:55:37.618Z,3.65
2023-04-10T14:58:06.928Z,3.90
2023-04-10T15:00:33.497Z,4.63
2023-04-10T15:03:00.440Z,4.57
2023-04-10T15:05:27.915Z,4.50
2023-04-10T15:07:54.940Z,4.32
2023-04-10T15:10:21.784Z,3.97
2023-04-10T15:12:48.574Z,3.83
2023-04-10T15:15:15.343Z,3.60
2023-04-10T15:17:41.948Z,4.10
2023-04-10T15:20:09.099Z,3.55
2023-04-10T15:22:35.931Z,4.43
2023-04-10T15:25:02.882Z,3.95
2023-04-10T15:27:29.580Z,4.43
2023-04-10T15:29:56.167Z,5.18
2023-04-10T15:32:22.773Z,4.47
2023-04-10T15:34:49.460Z,4.68
2023-04-10T15:37:16.097Z,4.80
2023-04-10T15:39:42.704Z,5.25
2023-04-10T15:42:09.246Z,5.50
2023-04-10T15:44:36.141Z,6.18
2023-04-10T15:47:02.713Z,7.00
2023-04-10T15:49:37.792Z,6.50
2023-04-10T15:52:06.729Z,5.57
2023-04-10T15:54:34.751Z,6.07
2023-04-10T15:57:02.345Z,6.10
2023-04-10T15:59:29.370Z,5.30
2023-04-10T16:01:56.416Z,6.13
2023-04-10T16:04:23.365Z,7.85
2023-04-10T16:06:50.660Z,7.13
2023-04-10T16:11:48.778Z,7.88
2023-04-10T16:14:15.525Z,7.82
2023-04-10T16:16:42.109Z,7.90
2023-04-10T16:19:09.921Z,8.15
2023-04-10T16:21:36.683Z,7.25
2023-04-10T16:24:03.480Z,5.68
2023-04-10T16:26:30.257Z,6.47
2023-04-10T16:28:57.302Z,7.15
2023-04-10T16:31:24.166Z,7.05
2023-04-10T16:33:50.907Z,6.22
2023-04-10T16:36:17.571Z,5.60
2023-04-10T16:38:44.646Z,5.80
2023-04-10T16:41:12.701Z,5.85
2023-04-10T16:43:39.462Z,1.95
2023-04-10T16:46:06.364Z,2.60
2023-04-10T16:48:34.918Z,2.70
2023-04-10T16:51:06.261Z,2.30
2023-04-10T16:53:33.643Z,1.75
2023-04-10T16:56:03.523Z,0.80
2023-04-10T16:58:31.580Z,2.97
2023-04-10T17:00:58.923Z,3.10
2023-04-10T17:03:25.859Z,3.33
2023-04-10T17:05:52.536Z,2.63
2023-04-10T17:08:19.100Z,2.40
2023-04-10T17:10:45.784Z,2.85
2023-04-10T17:13:12.453Z,2.92
2023-04-10T17:15:39.025Z,3.10
2023-04-10T17:18:05.639Z,3.75
2023-04-10T17:20:36.114Z,3.90
2023-04-10T17:23:03.118Z,3.55
2023-04-10T17:25:30.197Z,3.72
2023-04-10T17:27:57.868Z,3.97
2023-04-10T17:30:24.694Z,4.20
2023-04-10T17:32:51.270Z,5.00
2023-04-10T17:35:18.135Z,5.22
2023-04-10T17:37:44.789Z,5.20
2023-04-10T17:40:11.953Z,6.30
2023-04-10T17:42:38.644Z,6.47
2023-04-10T17:45:05.990Z,6.32
2023-04-10T17:47:32.868Z,6.20
2023-04-10T17:49:59.502Z,6.57
2023-04-10T17:52:26.512Z,6.60
2023-04-10T17:54:53.113Z,7.13
2023-04-10T17:57:19.693Z,7.70
2023-04-10T17:59:46.334Z,7.88
2023-04-10T18:02:13.001Z,8.10
2023-04-10T18:04:39.615Z,9.25
2023-04-10T18:07:06.563Z,8.63
2023-04-10T18:09:33.178Z,9.77
2023-04-10T18:11:59.888Z,9.57
2023-04-10T18:14:26.621Z,9.00
2023-04-10T18:16:53.248Z,9.32
2023-04-10T18:19:19.827Z,9.45
2023-04-10T18:21:46.534Z,8.43
2023-04-10T18:24:14.036Z,7.85
2023-04-10T18:26:40.774Z,9.50
2023-04-10T18:29:07.839Z,9.32
2023-04-10T18:31:34.394Z,10.43
2023-04-10T18:34:07.875Z,12.10
2023-04-10T18:36:35.314Z,11.57
2023-04-10T18:39:01.961Z,10.60
2023-04-10T18:41:28.947Z,13.55
2023-04-10T18:44:04.326Z,15.75
2023-04-10T18:46:32.833Z,16.55
2023-04-10T18:49:01.302Z,18.23
2023-04-10T18:51:28.300Z,18.95
2023-04-10T18:53:55.760Z,17.85
2023-04-10T18:56:22.700Z,20.98
2023-04-10T18:58:50.200Z,22.63
2023-04-10T19:01:18.021Z,23.83
2023-04-10T19:03:47.756Z,24.95
2023-04-10T19:06:17.634Z,20.77
2023-04-10T19:08:44.240Z,19.50
2023-04-10T19:11:12.406Z,18.80
2023-04-10T19:13:39.179Z,17.45
2023-04-10T19:16:06.126Z,17.88
2023-04-10T19:18:32.750Z,17.17
2023-04-10T19:20:59.567Z,16.00
2023-04-10T19:23:26.898Z,17.35
2023-04-10T19:25:54.878Z,16.45
2023-04-10T19:28:23.296Z,15.90
2023-04-10T19:30:50.540Z,16.10
2023-04-10T19:33:17.486Z,15.70
2023-04-10T19:35:44.327Z,53.38
2023-04-10T19:38:11.138Z,129.52
2023-04-10T19:40:37.878Z,29.85
2023-04-10T19:43:04.506Z,15.15
2023-04-10T19:45:33.157Z,49.45
2023-04-10T19:48:00.421Z,15.13
2023-04-10T19:50:30.132Z,16.58
2023-04-10T19:52:57.697Z,14.80
2023-04-10T19:55:24.330Z,13.10
2023-04-10T19:57:51.195Z,11.90
2023-04-10T20:00:18.844Z,13.30
2023-04-10T20:02:45.690Z,12.30
2023-04-10T20:05:12.515Z,12.40
2023-04-10T20:07:39.221Z,11.68
2023-04-10T20:10:06.491Z,12.00
2023-04-10T20:12:33.311Z,10.63
2023-04-10T20:15:04.081Z,10.73
2023-04-10T20:17:31.365Z,11.85
2023-04-10T20:19:58.347Z,12.13
2023-04-10T20:22:25.536Z,11.23
2023-04-10T20:24:52.181Z,10.40
2023-04-10T20:27:18.796Z,11.73
2023-04-10T20:29:45.452Z,11.77
2023-04-10T20:32:12.255Z,12.18
2023-04-10T20:34:38.953Z,12.65
2023-04-10T20:37:05.899Z,12.57
2023-04-10T20:39:33.462Z,13.00
2023-04-10T20:42:00.141Z,12.85
2023-04-10T20:44:26.765Z,13.10
2023-04-10T20:46:53.440Z,14.00
2023-04-10T20:49:20.103Z,15.15
2023-04-10T20:51:47.377Z,15.60
2023-04-10T20:54:14.014Z,18.83
2023-04-10T20:56:43.827Z,20.90
2023-04-10T20:59:11.351Z,22.77
2023-04-10T21:01:38.549Z,26.60
2023-04-10T21:04:05.782Z,27.58
2023-04-10T21:06:33.718Z,26.50
2023-04-10T21:09:00.909Z,22.52
2023-04-10T21:11:27.701Z,18.33
2023-04-10T21:13:54.497Z,19.90
2023-04-10T21:16:21.233Z,13.98
2023-04-10T21:18:47.942Z,14.85
2023-04-10T21:21:14.707Z,14.93
2023-04-10T21:23:41.465Z,13.98
2023-04-10T21:26:08.205Z,12.85
2023-04-10T21:28:34.850Z,13.50
2023-04-10T21:31:01.632Z,12.98
2023-04-10T21:33:28.380Z,11.35
2023-04-10T21:35:56.007Z,10.35
2023-04-10T21:38:23.972Z,11.13
2023-04-10T21:40:51.565Z,12.23
2023-04-10T21:43:18.611Z,11.65
2023-04-10T21:45:45.295Z,11.75
2023-04-10T21:48:12.023Z,12.18
2023-04-10T21:50:38.748Z,12.50
2023-04-10T21:53:05.384Z,12.43
2023-04-10T21:55:31.996Z,12.40
2023-04-10T21:57:58.556Z,12.40
2023-04-10T22:00:25.197Z,12.27
2023-04-10T22:02:52.256Z,12.85
2023-04-10T22:05:19.241Z,13.02
2023-04-10T22:07:45.778Z,11.98
2023-04-10T22:10:12.490Z,13.38
2023-04-10T22:12:39.185Z,12.93
2023-04-10T22:15:07.865Z,13.25
2023-04-10T22:17:34.791Z,12.85
2023-04-10T22:20:02.068Z,13.55
2023-04-10T22:22:28.936Z,12.70
2023-04-10T22:24:55.715Z,12.88
2023-04-10T22:27:23.638Z,13.10
2023-04-10T22:30:02.081Z,12.10
2023-04-10T22:32:30.547Z,11.77
2023-04-10T22:34:58.900Z,11.55
2023-04-10T22:37:26.196Z,11.07
2023-04-10T22:39:52.992Z,11.05
2023-04-10T22:42:19.639Z,10.85
2023-04-10T22:44:46.785Z,10.48
2023-04-10T22:47:13.486Z,10.15
2023-04-10T22:49:40.392Z,8.02
2023-04-10T22:52:07.364Z,8.75
2023-04-10T22:54:34.262Z,8.38
2023-04-10T22:57:00.832Z,8.40
2023-04-10T22:59:27.442Z,8.55
2023-04-10T23:01:54.061Z,8.63
2023-04-10T23:04:20.894Z,8.15
2023-04-10T23:06:47.576Z,8.75
2023-04-10T23:09:14.232Z,9.02
2023-04-10T23:11:41.001Z,8.38
2023-04-10T23:14:07.792Z,8.65
2023-04-10T23:16:34.599Z,9.20
2023-04-10T23:19:01.195Z,9.48
2023-04-10T23:21:27.976Z,9.85
2023-04-10T23:23:54.565Z,9.55
2023-04-10T23:26:21.289Z,10.00
2023-04-10T23:28:48.171Z,9.55
2023-04-10T23:31:15.775Z,9.57
2023-04-10T23:49:29.482Z,9.10
2023-04-10T23:51:56.040Z,9.10
2023-04-10T23:54:22.644Z,8.50
2023-04-10T23:56:49.472Z,8.32
2023-04-10T23:59:17.081Z,8.35
